Метеостанция


АнтоновUKKM 140330Z AUTO 02003MPS 330V070 7000 -SN ///004/// M01/M01 Q1018
БориспольUKBB 140330Z 02005MPS 9999 -SN BKN005 OVC008 M01/M01 Q1017 R88/521036 TEMPO 1400 SN BKN003
Гаврышовка (Винница)UKWW 140330Z 01003MPS 9000 -SN OVC007 M02/M02 Q1017 NOSIG
ДнепропетровскUKDD 140330Z 16003MPS 120V190 1800 1400S R08/P2000N SHSN BR BKN008 BKN024CB M00/M01 Q1017 R08/510556 NOSIG
ЖуляныUKKK 140330Z 03004MPS 6000 -SN BKN004 OVC012 M01/M01 Q1017 R08/290045 TEMPO OVC003
Запорожье(Мокрая)UKDE 140350Z 13002MPS 7000 OVC004 M00/M01 Q1019 R02R/210352 NOSIG
Ивано-ФранковскUKLI 140330Z 30003MPS 260V350 9999 -SHSN BKN013 BKN026CB M01/M02 Q1020 NOSIG
Кривой РогUKDR 140330Z 18004MPS 130V230 4100 -SN OVC005 M00/M01 Q1016 R18/290150 NOSIG
ЛьвовUKLL 140330Z 32003MPS 8000 -SN OVC007 M02/M03 Q1020 R31/550535 NOSIG
НиколаевUKON 131500Z 23006MPS 210V270 2500 -SHSN BKN004 BKN///CB 00/M00 Q1014 R22/590610 NOSIG
ОдессаUKOO 140330Z 27004MPS 9999 -SN BKN008 OVC020 M01/M01 Q1018 R16/290045 NOSIG
РовноUKLR 131500Z 35004MPS 2400 -SN OVC005 M01/M02 Q1016 R29/////// NOSIG
УжгородUKLU 140300Z 33002MPS 9999 OVC033 00/M02 Q1021 NOSIG
ХарьковUKHH 140332Z 11004MPS 9999 OVC009 M01/M02 Q1019 R07/71//66 NOSIG
ЧерновцыUKLN 140350Z 30005MPS 250V340 9999 BKN019 BKN///CB M01/M02 Q1020 NOSIG
Скачать:
Скачать этот файл (Metar_шпаргалка.jpg)Расшифровка METAR[ ]4799 Кб
Вся информация, которая имеется в использовании на сайте и доступная для скачивания, получена исключительно из открытых источников информации сети Интернет, всякое совпадение с данными, имеющими ограничения в доступе, случайное и не является преднамеренным.